sensor_id;sensor_type;location;lat;lon;timestamp;P1;durP1;ratioP1;P2;durP2;ratioP2
27265;SDS011;14766;51.380;13.762;2022-08-03T00:02:16;3.05;;;2.03;;
27265;SDS011;14766;51.380;13.762;2022-08-03T00:04:44;2.38;;;2.00;;
27265;SDS011;14766;51.380;13.762;2022-08-03T00:07:11;3.45;;;2.25;;
27265;SDS011;14766;51.380;13.762;2022-08-03T00:09:39;3.13;;;2.13;;
27265;SDS011;14766;51.380;13.762;2022-08-03T00:12:06;2.65;;;2.08;;
27265;SDS011;14766;51.380;13.762;2022-08-03T00:14:34;2.30;;;2.10;;
27265;SDS011;14766;51.380;13.762;2022-08-03T00:17:04;3.10;;;2.20;;
27265;SDS011;14766;51.380;13.762;2022-08-03T00:19:31;3.03;;;2.13;;
27265;SDS011;14766;51.380;13.762;2022-08-03T00:21:58;2.30;;;2.10;;
27265;SDS011;14766;51.380;13.762;2022-08-03T00:24:25;3.85;;;2.05;;
27265;SDS011;14766;51.380;13.762;2022-08-03T00:26:52;4.22;;;2.10;;
27265;SDS011;14766;51.380;13.762;2022-08-03T00:29:19;2.28;;;2.08;;
27265;SDS011;14766;51.380;13.762;2022-08-03T00:31:46;2.42;;;2.22;;
27265;SDS011;14766;51.380;13.762;2022-08-03T00:34:24;3.80;;;2.40;;
27265;SDS011;14766;51.380;13.762;2022-08-03T00:37:11;3.47;;;2.03;;
27265;SDS011;14766;51.380;13.762;2022-08-03T00:39:38;2.85;;;2.13;;
27265;SDS011;14766;51.380;13.762;2022-08-03T00:42:07;2.75;;;1.90;;
27265;SDS011;14766;51.380;13.762;2022-08-03T00:44:42;4.03;;;1.95;;
27265;SDS011;14766;51.380;13.762;2022-08-03T00:47:10;2.47;;;2.10;;
27265;SDS011;14766;51.380;13.762;2022-08-03T00:49:40;2.45;;;2.20;;
27265;SDS011;14766;51.380;13.762;2022-08-03T00:52:08;2.17;;;1.98;;
27265;SDS011;14766;51.380;13.762;2022-08-03T00:54:37;3.40;;;2.17;;
27265;SDS011;14766;51.380;13.762;2022-08-03T00:57:04;2.97;;;2.60;;
27265;SDS011;14766;51.380;13.762;2022-08-03T00:59:32;4.45;;;2.38;;
27265;SDS011;14766;51.380;13.762;2022-08-03T01:01:59;2.47;;;2.05;;
27265;SDS011;14766;51.380;13.762;2022-08-03T01:04:27;2.30;;;2.03;;
27265;SDS011;14766;51.380;13.762;2022-08-03T01:06:57;3.15;;;2.15;;
27265;SDS011;14766;51.380;13.762;2022-08-03T01:12:51;2.90;;;2.42;;
27265;SDS011;14766;51.380;13.762;2022-08-03T01:18:00;2.30;;;2.10;;
27265;SDS011;14766;51.380;13.762;2022-08-03T01:20:34;3.47;;;2.70;;
27265;SDS011;14766;51.380;13.762;2022-08-03T01:25:39;4.05;;;2.40;;
27265;SDS011;14766;51.380;13.762;2022-08-03T01:28:19;2.88;;;2.50;;
27265;SDS011;14766;51.380;13.762;2022-08-03T01:31:06;2.30;;;2.10;;
27265;SDS011;14766;51.380;13.762;2022-08-03T01:33:42;3.83;;;2.20;;
27265;SDS011;14766;51.380;13.762;2022-08-03T01:36:16;3.35;;;2.63;;
27265;SDS011;14766;51.380;13.762;2022-08-03T01:38:53;3.08;;;2.33;;
27265;SDS011;14766;51.380;13.762;2022-08-03T01:41:54;2.33;;;2.08;;
27265;SDS011;14766;51.380;13.762;2022-08-03T01:44:25;2.40;;;2.05;;
27265;SDS011;14766;51.380;13.762;2022-08-03T01:46:57;2.45;;;2.25;;
27265;SDS011;14766;51.380;13.762;2022-08-03T01:49:26;3.20;;;2.30;;
27265;SDS011;14766;51.380;13.762;2022-08-03T01:51:57;3.65;;;2.45;;
27265;SDS011;14766;51.380;13.762;2022-08-03T01:54:31;4.40;;;2.50;;
27265;SDS011;14766;51.380;13.762;2022-08-03T01:57:02;2.40;;;2.20;;
27265;SDS011;14766;51.380;13.762;2022-08-03T01:59:31;2.60;;;2.13;;
27265;SDS011;14766;51.380;13.762;2022-08-03T02:02:02;2.80;;;2.20;;
27265;SDS011;14766;51.380;13.762;2022-08-03T02:04:53;3.17;;;2.50;;
27265;SDS011;14766;51.380;13.762;2022-08-03T02:07:23;3.28;;;2.35;;
27265;SDS011;14766;51.380;13.762;2022-08-03T02:09:52;2.53;;;2.15;;
27265;SDS011;14766;51.380;13.762;2022-08-03T02:12:22;2.50;;;2.20;;
27265;SDS011;14766;51.380;13.762;2022-08-03T02:14:51;2.67;;;2.47;;
27265;SDS011;14766;51.380;13.762;2022-08-03T02:17:20;2.45;;;2.20;;
27265;SDS011;14766;51.380;13.762;2022-08-03T02:20:06;2.78;;;2.50;;
27265;SDS011;14766;51.380;13.762;2022-08-03T02:22:38;2.50;;;2.30;;
27265;SDS011;14766;51.380;13.762;2022-08-03T02:25:07;3.65;;;2.13;;
27265;SDS011;14766;51.380;13.762;2022-08-03T02:27:36;3.28;;;2.50;;
27265;SDS011;14766;51.380;13.762;2022-08-03T02:30:09;3.35;;;2.47;;
27265;SDS011;14766;51.380;13.762;2022-08-03T02:32:39;2.97;;;2.30;;
27265;SDS011;14766;51.380;13.762;2022-08-03T02:35:11;2.60;;;2.33;;
27265;SDS011;14766;51.380;13.762;2022-08-03T02:37:45;2.80;;;2.33;;
27265;SDS011;14766;51.380;13.762;2022-08-03T02:40:18;2.97;;;2.35;;
27265;SDS011;14766;51.380;13.762;2022-08-03T02:42:50;4.45;;;2.80;;
27265;SDS011;14766;51.380;13.762;2022-08-03T02:45:20;2.72;;;2.42;;
27265;SDS011;14766;51.380;13.762;2022-08-03T02:47:51;4.18;;;2.35;;
27265;SDS011;14766;51.380;13.762;2022-08-03T02:50:23;2.92;;;2.58;;
27265;SDS011;14766;51.380;13.762;2022-08-03T02:52:53;3.70;;;2.90;;
27265;SDS011;14766;51.380;13.762;2022-08-03T02:55:22;4.32;;;2.70;;
27265;SDS011;14766;51.380;13.762;2022-08-03T02:57:52;2.65;;;2.40;;
27265;SDS011;14766;51.380;13.762;2022-08-03T03:00:20;4.22;;;2.55;;
27265;SDS011;14766;51.380;13.762;2022-08-03T03:02:55;2.70;;;2.33;;
27265;SDS011;14766;51.380;13.762;2022-08-03T03:05:25;5.47;;;2.40;;
27265;SDS011;14766;51.380;13.762;2022-08-03T03:08:15;2.35;;;2.13;;
27265;SDS011;14766;51.380;13.762;2022-08-03T03:10:54;2.97;;;2.28;;
27265;SDS011;14766;51.380;13.762;2022-08-03T03:13:26;2.45;;;2.25;;
27265;SDS011;14766;51.380;13.762;2022-08-03T03:15:59;2.53;;;2.08;;
27265;SDS011;14766;51.380;13.762;2022-08-03T03:18:32;5.13;;;2.75;;
27265;SDS011;14766;51.380;13.762;2022-08-03T03:21:00;2.90;;;2.28;;
27265;SDS011;14766;51.380;13.762;2022-08-03T03:23:31;2.67;;;2.45;;
27265;SDS011;14766;51.380;13.762;2022-08-03T03:26:02;2.83;;;2.55;;
27265;SDS011;14766;51.380;13.762;2022-08-03T03:28:31;2.35;;;2.08;;
27265;SDS011;14766;51.380;13.762;2022-08-03T03:30:59;3.28;;;2.53;;
27265;SDS011;14766;51.380;13.762;2022-08-03T03:33:27;2.53;;;2.33;;
27265;SDS011;14766;51.380;13.762;2022-08-03T03:35:56;2.60;;;2.40;;
27265;SDS011;14766;51.380;13.762;2022-08-03T03:38:24;2.90;;;2.55;;
27265;SDS011;14766;51.380;13.762;2022-08-03T03:40:51;3.95;;;2.55;;
27265;SDS011;14766;51.380;13.762;2022-08-03T03:43:21;2.95;;;2.63;;
27265;SDS011;14766;51.380;13.762;2022-08-03T03:45:51;2.90;;;2.58;;
27265;SDS011;14766;51.380;13.762;2022-08-03T03:48:20;3.40;;;2.50;;
27265;SDS011;14766;51.380;13.762;2022-08-03T03:50:48;3.00;;;2.75;;
27265;SDS011;14766;51.380;13.762;2022-08-03T03:53:17;2.83;;;2.25;;
27265;SDS011;14766;51.380;13.762;2022-08-03T03:55:46;2.72;;;2.53;;
27265;SDS011;14766;51.380;13.762;2022-08-03T03:58:28;3.22;;;2.38;;
27265;SDS011;14766;51.380;13.762;2022-08-03T04:00:56;4.13;;;2.35;;
27265;SDS011;14766;51.380;13.762;2022-08-03T04:03:23;5.07;;;2.40;;
27265;SDS011;14766;51.380;13.762;2022-08-03T04:05:51;3.38;;;2.45;;
27265;SDS011;14766;51.380;13.762;2022-08-03T04:08:38;3.10;;;2.47;;
27265;SDS011;14766;51.380;13.762;2022-08-03T04:11:29;2.97;;;2.20;;
27265;SDS011;14766;51.380;13.762;2022-08-03T04:14:22;4.53;;;2.42;;
27265;SDS011;14766;51.380;13.762;2022-08-03T04:16:56;2.50;;;2.30;;
27265;SDS011;14766;51.380;13.762;2022-08-03T04:19:27;3.53;;;2.65;;
27265;SDS011;14766;51.380;13.762;2022-08-03T04:22:17;3.40;;;2.72;;
27265;SDS011;14766;51.380;13.762;2022-08-03T04:24:51;2.38;;;2.13;;
27265;SDS011;14766;51.380;13.762;2022-08-03T04:27:24;2.55;;;2.35;;
27265;SDS011;14766;51.380;13.762;2022-08-03T04:29:55;3.55;;;2.40;;
27265;SDS011;14766;51.380;13.762;2022-08-03T04:32:24;2.92;;;2.55;;
27265;SDS011;14766;51.380;13.762;2022-08-03T04:34:54;3.15;;;2.50;;
27265;SDS011;14766;51.380;13.762;2022-08-03T04:40:09;2.80;;;2.50;;
27265;SDS011;14766;51.380;13.762;2022-08-03T04:42:40;2.65;;;2.30;;
27265;SDS011;14766;51.380;13.762;2022-08-03T04:45:11;2.53;;;2.33;;
27265;SDS011;14766;51.380;13.762;2022-08-03T04:47:40;3.75;;;2.67;;
27265;SDS011;14766;51.380;13.762;2022-08-03T04:50:08;6.15;;;2.85;;
27265;SDS011;14766;51.380;13.762;2022-08-03T04:52:40;2.95;;;2.60;;
27265;SDS011;14766;51.380;13.762;2022-08-03T04:55:09;4.85;;;2.97;;
27265;SDS011;14766;51.380;13.762;2022-08-03T04:57:36;3.20;;;2.90;;
27265;SDS011;14766;51.380;13.762;2022-08-03T05:00:04;3.63;;;2.53;;
27265;SDS011;14766;51.380;13.762;2022-08-03T05:02:32;3.63;;;2.97;;
27265;SDS011;14766;51.380;13.762;2022-08-03T05:05:00;3.83;;;2.83;;
27265;SDS011;14766;51.380;13.762;2022-08-03T05:07:27;3.88;;;2.95;;
27265;SDS011;14766;51.380;13.762;2022-08-03T05:10:05;4.50;;;2.80;;
27265;SDS011;14766;51.380;13.762;2022-08-03T05:12:42;4.28;;;2.90;;
27265;SDS011;14766;51.380;13.762;2022-08-03T05:15:13;2.97;;;2.55;;
27265;SDS011;14766;51.380;13.762;2022-08-03T05:17:41;4.38;;;3.00;;
27265;SDS011;14766;51.380;13.762;2022-08-03T05:20:08;3.90;;;2.70;;
27265;SDS011;14766;51.380;13.762;2022-08-03T05:22:36;3.20;;;2.90;;
27265;SDS011;14766;51.380;13.762;2022-08-03T05:25:04;3.38;;;3.08;;
27265;SDS011;14766;51.380;13.762;2022-08-03T05:27:33;2.88;;;2.65;;
27265;SDS011;14766;51.380;13.762;2022-08-03T05:30:01;3.88;;;2.70;;
27265;SDS011;14766;51.380;13.762;2022-08-03T05:32:50;3.88;;;2.90;;
27265;SDS011;14766;51.380;13.762;2022-08-03T05:35:18;3.80;;;2.95;;
27265;SDS011;14766;51.380;13.762;2022-08-03T05:38:06;3.35;;;3.05;;
27265;SDS011;14766;51.380;13.762;2022-08-03T05:40:34;2.90;;;2.60;;
27265;SDS011;14766;51.380;13.762;2022-08-03T05:43:02;4.03;;;2.95;;
27265;SDS011;14766;51.380;13.762;2022-08-03T05:45:29;3.92;;;2.95;;
27265;SDS011;14766;51.380;13.762;2022-08-03T05:47:56;3.08;;;2.50;;
27265;SDS011;14766;51.380;13.762;2022-08-03T05:50:24;3.03;;;2.78;;
27265;SDS011;14766;51.380;13.762;2022-08-03T05:52:53;2.67;;;2.47;;
27265;SDS011;14766;51.380;13.762;2022-08-03T05:55:24;3.58;;;3.03;;
27265;SDS011;14766;51.380;13.762;2022-08-03T05:57:51;4.13;;;3.17;;
27265;SDS011;14766;51.380;13.762;2022-08-03T06:00:22;6.47;;;3.17;;
27265;SDS011;14766;51.380;13.762;2022-08-03T06:02:50;5.00;;;2.78;;
27265;SDS011;14766;51.380;13.762;2022-08-03T06:05:19;4.35;;;2.63;;
27265;SDS011;14766;51.380;13.762;2022-08-03T06:07:46;4.00;;;2.85;;
27265;SDS011;14766;51.380;13.762;2022-08-03T06:10:14;2.67;;;2.47;;
27265;SDS011;14766;51.380;13.762;2022-08-03T06:13:02;3.88;;;3.15;;
27265;SDS011;14766;51.380;13.762;2022-08-03T06:15:29;3.00;;;2.70;;
27265;SDS011;14766;51.380;13.762;2022-08-03T06:17:58;3.53;;;2.88;;
27265;SDS011;14766;51.380;13.762;2022-08-03T06:20:27;4.47;;;3.10;;
27265;SDS011;14766;51.380;13.762;2022-08-03T06:22:55;4.03;;;3.10;;
27265;SDS011;14766;51.380;13.762;2022-08-03T06:25:26;6.40;;;3.17;;
27265;SDS011;14766;51.380;13.762;2022-08-03T06:27:55;3.08;;;2.78;;
27265;SDS011;14766;51.380;13.762;2022-08-03T06:30:22;6.25;;;3.10;;
27265;SDS011;14766;51.380;13.762;2022-08-03T06:32:49;3.40;;;3.08;;
27265;SDS011;14766;51.380;13.762;2022-08-03T06:35:18;4.18;;;2.97;;
27265;SDS011;14766;51.380;13.762;2022-08-03T06:37:49;4.00;;;3.00;;
27265;SDS011;14766;51.380;13.762;2022-08-03T06:40:17;7.82;;;3.25;;
27265;SDS011;14766;51.380;13.762;2022-08-03T06:43:02;6.00;;;3.13;;
27265;SDS011;14766;51.380;13.762;2022-08-03T06:45:29;10.27;;;4.05;;
27265;SDS011;14766;51.380;13.762;2022-08-03T06:48:02;7.03;;;3.40;;
27265;SDS011;14766;51.380;13.762;2022-08-03T06:50:30;8.38;;;3.05;;
27265;SDS011;14766;51.380;13.762;2022-08-03T06:52:58;4.97;;;3.10;;
27265;SDS011;14766;51.380;13.762;2022-08-03T06:55:25;6.90;;;3.00;;
27265;SDS011;14766;51.380;13.762;2022-08-03T06:57:53;17.05;;;3.40;;
27265;SDS011;14766;51.380;13.762;2022-08-03T07:00:25;8.20;;;3.50;;
27265;SDS011;14766;51.380;13.762;2022-08-03T07:02:53;11.98;;;3.15;;
27265;SDS011;14766;51.380;13.762;2022-08-03T07:05:23;5.45;;;3.60;;
27265;SDS011;14766;51.380;13.762;2022-08-03T07:07:53;11.52;;;3.08;;
27265;SDS011;14766;51.380;13.762;2022-08-03T07:10:23;5.78;;;2.85;;
27265;SDS011;14766;51.380;13.762;2022-08-03T07:12:53;3.85;;;2.67;;
27265;SDS011;14766;51.380;13.762;2022-08-03T07:15:22;5.07;;;3.25;;
27265;SDS011;14766;51.380;13.762;2022-08-03T07:18:10;5.43;;;2.80;;
27265;SDS011;14766;51.380;13.762;2022-08-03T07:20:37;4.32;;;3.00;;
27265;SDS011;14766;51.380;13.762;2022-08-03T07:23:04;4.75;;;2.92;;
27265;SDS011;14766;51.380;13.762;2022-08-03T07:25:31;3.60;;;2.58;;
27265;SDS011;14766;51.380;13.762;2022-08-03T07:27:59;3.67;;;3.00;;
27265;SDS011;14766;51.380;13.762;2022-08-03T07:30:29;3.05;;;2.80;;
27265;SDS011;14766;51.380;13.762;2022-08-03T07:33:03;5.40;;;3.05;;
27265;SDS011;14766;51.380;13.762;2022-08-03T07:35:30;3.72;;;3.10;;
27265;SDS011;14766;51.380;13.762;2022-08-03T07:37:57;6.05;;;3.00;;
27265;SDS011;14766;51.380;13.762;2022-08-03T07:40:24;4.28;;;2.80;;
27265;SDS011;14766;51.380;13.762;2022-08-03T07:42:57;6.20;;;3.10;;
27265;SDS011;14766;51.380;13.762;2022-08-03T07:45:25;4.90;;;3.15;;
27265;SDS011;14766;51.380;13.762;2022-08-03T07:47:54;4.35;;;2.90;;
27265;SDS011;14766;51.380;13.762;2022-08-03T07:50:21;4.03;;;3.05;;
27265;SDS011;14766;51.380;13.762;2022-08-03T07:52:49;5.45;;;3.17;;
27265;SDS011;14766;51.380;13.762;2022-08-03T07:55:21;4.40;;;3.70;;
27265;SDS011;14766;51.380;13.762;2022-08-03T07:57:58;5.70;;;3.03;;
27265;SDS011;14766;51.380;13.762;2022-08-03T08:00:26;3.80;;;2.80;;
27265;SDS011;14766;51.380;13.762;2022-08-03T08:02:53;3.83;;;2.90;;
27265;SDS011;14766;51.380;13.762;2022-08-03T08:05:20;4.55;;;3.20;;
27265;SDS011;14766;51.380;13.762;2022-08-03T08:07:47;5.68;;;3.10;;
27265;SDS011;14766;51.380;13.762;2022-08-03T08:10:18;5.88;;;3.15;;
27265;SDS011;14766;51.380;13.762;2022-08-03T08:12:45;4.10;;;2.50;;
27265;SDS011;14766;51.380;13.762;2022-08-03T08:15:13;5.97;;;3.20;;
27265;SDS011;14766;51.380;13.762;2022-08-03T08:17:44;3.53;;;2.85;;
27265;SDS011;14766;51.380;13.762;2022-08-03T08:20:20;7.25;;;2.97;;
27265;SDS011;14766;51.380;13.762;2022-08-03T08:22:57;4.93;;;2.85;;
27265;SDS011;14766;51.380;13.762;2022-08-03T08:25:34;3.95;;;2.90;;
27265;SDS011;14766;51.380;13.762;2022-08-03T08:28:01;3.47;;;2.67;;
27265;SDS011;14766;51.380;13.762;2022-08-03T08:30:49;5.35;;;2.70;;
27265;SDS011;14766;51.380;13.762;2022-08-03T08:33:17;4.95;;;2.47;;
27265;SDS011;14766;51.380;13.762;2022-08-03T08:35:50;3.63;;;2.35;;
27265;SDS011;14766;51.380;13.762;2022-08-03T08:38:19;3.20;;;2.30;;
27265;SDS011;14766;51.380;13.762;2022-08-03T08:40:46;4.03;;;2.60;;
27265;SDS011;14766;51.380;13.762;2022-08-03T08:43:16;10.68;;;2.45;;
27265;SDS011;14766;51.380;13.762;2022-08-03T08:45:43;8.02;;;2.80;;
27265;SDS011;14766;51.380;13.762;2022-08-03T08:48:12;7.40;;;2.67;;
27265;SDS011;14766;51.380;13.762;2022-08-03T08:50:40;2.92;;;1.90;;
27265;SDS011;14766;51.380;13.762;2022-08-03T08:53:08;6.10;;;2.13;;
27265;SDS011;14766;51.380;13.762;2022-08-03T08:55:47;7.28;;;2.35;;
27265;SDS011;14766;51.380;13.762;2022-08-03T08:58:29;3.95;;;2.20;;
27265;SDS011;14766;51.380;13.762;2022-08-03T09:01:02;5.32;;;1.80;;
27265;SDS011;14766;51.380;13.762;2022-08-03T09:03:31;3.08;;;1.63;;
27265;SDS011;14766;51.380;13.762;2022-08-03T09:06:01;4.45;;;1.50;;
27265;SDS011;14766;51.380;13.762;2022-08-03T09:08:30;1.73;;;1.35;;
27265;SDS011;14766;51.380;13.762;2022-08-03T09:10:58;1.80;;;1.65;;
27265;SDS011;14766;51.380;13.762;2022-08-03T09:13:26;3.05;;;1.40;;
27265;SDS011;14766;51.380;13.762;2022-08-03T09:16:08;1.63;;;1.50;;
27265;SDS011;14766;51.380;13.762;2022-08-03T09:18:40;1.65;;;1.55;;
27265;SDS011;14766;51.380;13.762;2022-08-03T09:24:01;1.30;;;1.20;;
27265;SDS011;14766;51.380;13.762;2022-08-03T09:26:34;2.30;;;1.52;;
27265;SDS011;14766;51.380;13.762;2022-08-03T09:29:04;2.00;;;1.63;;
27265;SDS011;14766;51.380;13.762;2022-08-03T09:31:42;1.70;;;1.48;;
27265;SDS011;14766;51.380;13.762;2022-08-03T09:34:13;1.58;;;1.42;;
27265;SDS011;14766;51.380;13.762;2022-08-03T09:36:45;1.73;;;1.40;;
27265;SDS011;14766;51.380;13.762;2022-08-03T09:39:26;1.55;;;1.35;;
27265;SDS011;14766;51.380;13.762;2022-08-03T09:42:15;2.15;;;1.38;;
27265;SDS011;14766;51.380;13.762;2022-08-03T09:44:50;1.77;;;1.40;;
27265;SDS011;14766;51.380;13.762;2022-08-03T09:47:28;2.60;;;1.40;;
27265;SDS011;14766;51.380;13.762;2022-08-03T09:52:37;1.63;;;1.52;;
27265;SDS011;14766;51.380;13.762;2022-08-03T09:55:18;2.10;;;1.83;;
27265;SDS011;14766;51.380;13.762;2022-08-03T09:58:10;1.55;;;1.45;;
27265;SDS011;14766;51.380;13.762;2022-08-03T10:03:25;1.40;;;1.30;;
27265;SDS011;14766;51.380;13.762;2022-08-03T10:05:54;1.30;;;1.20;;
27265;SDS011;14766;51.380;13.762;2022-08-03T10:08:26;1.45;;;1.17;;
27265;SDS011;14766;51.380;13.762;2022-08-03T10:10:53;1.70;;;1.60;;
27265;SDS011;14766;51.380;13.762;2022-08-03T10:13:22;2.25;;;1.33;;
27265;SDS011;14766;51.380;13.762;2022-08-03T10:15:49;1.50;;;1.40;;
27265;SDS011;14766;51.380;13.762;2022-08-03T10:18:36;1.50;;;1.40;;
27265;SDS011;14766;51.380;13.762;2022-08-03T10:21:07;1.30;;;1.20;;
27265;SDS011;14766;51.380;13.762;2022-08-03T10:23:37;1.95;;;1.40;;
27265;SDS011;14766;51.380;13.762;2022-08-03T10:26:06;1.42;;;1.33;;
27265;SDS011;14766;51.380;13.762;2022-08-03T10:28:34;1.50;;;1.40;;
27265;SDS011;14766;51.380;13.762;2022-08-03T10:31:10;2.78;;;1.50;;
27265;SDS011;14766;51.380;13.762;2022-08-03T10:33:43;2.88;;;1.35;;
27265;SDS011;14766;51.380;13.762;2022-08-03T10:36:22;2.28;;;1.50;;
27265;SDS011;14766;51.380;13.762;2022-08-03T10:38:53;2.22;;;1.67;;
27265;SDS011;14766;51.380;13.762;2022-08-03T10:41:23;1.70;;;1.60;;
27265;SDS011;14766;51.380;13.762;2022-08-03T10:44:10;1.52;;;1.42;;
27265;SDS011;14766;51.380;13.762;2022-08-03T10:46:41;2.25;;;1.50;;
27265;SDS011;14766;51.380;13.762;2022-08-03T10:49:14;1.48;;;1.38;;
27265;SDS011;14766;51.380;13.762;2022-08-03T10:52:00;4.20;;;1.40;;
27265;SDS011;14766;51.380;13.762;2022-08-03T10:54:48;1.55;;;1.40;;
27265;SDS011;14766;51.380;13.762;2022-08-03T10:57:43;3.42;;;1.33;;
27265;SDS011;14766;51.380;13.762;2022-08-03T11:00:15;1.95;;;1.58;;
27265;SDS011;14766;51.380;13.762;2022-08-03T11:05:36;2.90;;;1.60;;
27265;SDS011;14766;51.380;13.762;2022-08-03T11:16:39;1.63;;;1.50;;
27265;SDS011;14766;51.380;13.762;2022-08-03T11:19:13;1.38;;;1.27;;
27265;SDS011;14766;51.380;13.762;2022-08-03T11:27:18;1.70;;;1.30;;
27265;SDS011;14766;51.380;13.762;2022-08-03T11:30:00;1.55;;;1.42;;
27265;SDS011;14766;51.380;13.762;2022-08-03T11:48:36;1.50;;;1.05;;
27265;SDS011;14766;51.380;13.762;2022-08-03T11:51:05;1.40;;;1.30;;
27265;SDS011;14766;51.380;13.762;2022-08-03T11:53:33;1.50;;;1.25;;
27265;SDS011;14766;51.380;13.762;2022-08-03T11:56:07;1.40;;;1.30;;
27265;SDS011;14766;51.380;13.762;2022-08-03T11:58:44;1.88;;;1.10;;
27265;SDS011;14766;51.380;13.762;2022-08-03T12:01:35;1.73;;;1.48;;
27265;SDS011;14766;51.380;13.762;2022-08-03T12:04:04;1.13;;;1.10;;
27265;SDS011;14766;51.380;13.762;2022-08-03T12:06:32;2.80;;;1.30;;
27265;SDS011;14766;51.380;13.762;2022-08-03T12:09:20;1.88;;;1.23;;
27265;SDS011;14766;51.380;13.762;2022-08-03T12:11:48;1.60;;;1.50;;
27265;SDS011;14766;51.380;13.762;2022-08-03T12:14:26;1.95;;;1.45;;
27265;SDS011;14766;51.380;13.762;2022-08-03T12:17:15;2.03;;;1.60;;
27265;SDS011;14766;51.380;13.762;2022-08-03T12:19:42;3.00;;;1.55;;
27265;SDS011;14766;51.380;13.762;2022-08-03T12:22:10;1.40;;;1.30;;
27265;SDS011;14766;51.380;13.762;2022-08-03T12:24:41;1.42;;;1.33;;
27265;SDS011;14766;51.380;13.762;2022-08-03T12:27:21;3.67;;;1.27;;
27265;SDS011;14766;51.380;13.762;2022-08-03T12:29:53;1.25;;;1.15;;
27265;SDS011;14766;51.380;13.762;2022-08-03T12:34:53;2.00;;;1.40;;
27265;SDS011;14766;51.380;13.762;2022-08-03T12:37:26;2.17;;;1.20;;
27265;SDS011;14766;51.380;13.762;2022-08-03T12:39:53;1.30;;;1.13;;
27265;SDS011;14766;51.380;13.762;2022-08-03T12:42:37;2.83;;;1.20;;
27265;SDS011;14766;51.380;13.762;2022-08-03T12:47:53;3.28;;;1.30;;
27265;SDS011;14766;51.380;13.762;2022-08-03T12:50:28;1.45;;;1.35;;
27265;SDS011;14766;51.380;13.762;2022-08-03T12:52:58;1.55;;;1.17;;
27265;SDS011;14766;51.380;13.762;2022-08-03T12:55:27;1.23;;;1.10;;
27265;SDS011;14766;51.380;13.762;2022-08-03T12:58:32;1.48;;;1.33;;
27265;SDS011;14766;51.380;13.762;2022-08-03T13:01:03;1.40;;;1.30;;
27265;SDS011;14766;51.380;13.762;2022-08-03T13:03:41;2.00;;;1.27;;
27265;SDS011;14766;51.380;13.762;2022-08-03T13:06:17;1.45;;;1.20;;
27265;SDS011;14766;51.380;13.762;2022-08-03T13:08:47;1.50;;;1.25;;
27265;SDS011;14766;51.380;13.762;2022-08-03T13:11:23;2.03;;;1.25;;
27265;SDS011;14766;51.380;13.762;2022-08-03T13:14:12;2.03;;;1.10;;
27265;SDS011;14766;51.380;13.762;2022-08-03T13:16:46;1.05;;;0.98;;
27265;SDS011;14766;51.380;13.762;2022-08-03T13:19:16;2.75;;;1.40;;
27265;SDS011;14766;51.380;13.762;2022-08-03T13:21:44;2.65;;;1.48;;
27265;SDS011;14766;51.380;13.762;2022-08-03T13:24:30;1.60;;;1.50;;
27265;SDS011;14766;51.380;13.762;2022-08-03T13:26:58;1.30;;;1.20;;
27265;SDS011;14766;51.380;13.762;2022-08-03T13:29:26;1.40;;;1.30;;
27265;SDS011;14766;51.380;13.762;2022-08-03T13:31:53;1.30;;;1.20;;
27265;SDS011;14766;51.380;13.762;2022-08-03T13:34:20;1.92;;;1.45;;
27265;SDS011;14766;51.380;13.762;2022-08-03T13:36:49;2.80;;;1.20;;
27265;SDS011;14766;51.380;13.762;2022-08-03T13:39:35;1.50;;;1.30;;
27265;SDS011;14766;51.380;13.762;2022-08-03T13:42:22;1.20;;;1.10;;
27265;SDS011;14766;51.380;13.762;2022-08-03T13:44:49;1.30;;;1.20;;
27265;SDS011;14766;51.380;13.762;2022-08-03T13:47:17;2.88;;;1.52;;
27265;SDS011;14766;51.380;13.762;2022-08-03T13:49:45;2.45;;;1.40;;
27265;SDS011;14766;51.380;13.762;2022-08-03T13:52:26;3.38;;;1.20;;
27265;SDS011;14766;51.380;13.762;2022-08-03T13:54:58;1.30;;;1.10;;
27265;SDS011;14766;51.380;13.762;2022-08-03T13:57:25;1.50;;;1.30;;
27265;SDS011;14766;51.380;13.762;2022-08-03T14:00:13;1.30;;;1.10;;
27265;SDS011;14766;51.380;13.762;2022-08-03T14:02:54;1.67;;;1.20;;
27265;SDS011;14766;51.380;13.762;2022-08-03T14:05:32;1.38;;;1.27;;
27265;SDS011;14766;51.380;13.762;2022-08-03T14:08:01;3.65;;;1.58;;
27265;SDS011;14766;51.380;13.762;2022-08-03T14:10:38;1.77;;;1.27;;
27265;SDS011;14766;51.380;13.762;2022-08-03T14:13:09;1.30;;;1.20;;
27265;SDS011;14766;51.380;13.762;2022-08-03T14:15:37;2.92;;;1.40;;
27265;SDS011;14766;51.380;13.762;2022-08-03T14:18:05;1.48;;;1.20;;
27265;SDS011;14766;51.380;13.762;2022-08-03T14:20:40;1.33;;;1.05;;
27265;SDS011;14766;51.380;13.762;2022-08-03T14:23:16;4.53;;;1.52;;
27265;SDS011;14766;51.380;13.762;2022-08-03T14:25:43;1.45;;;1.20;;
27265;SDS011;14766;51.380;13.762;2022-08-03T14:28:19;1.70;;;0.93;;
27265;SDS011;14766;51.380;13.762;2022-08-03T14:30:51;3.53;;;1.25;;
27265;SDS011;14766;51.380;13.762;2022-08-03T14:33:24;1.63;;;1.10;;
27265;SDS011;14766;51.380;13.762;2022-08-03T14:35:58;2.37;;;1.10;;
27265;SDS011;14766;51.380;13.762;2022-08-03T14:38:25;1.45;;;1.20;;
27265;SDS011;14766;51.380;13.762;2022-08-03T14:40:52;2.92;;;1.20;;
27265;SDS011;14766;51.380;13.762;2022-08-03T14:43:20;1.17;;;0.95;;
27265;SDS011;14766;51.380;13.762;2022-08-03T14:45:49;2.45;;;1.20;;
27265;SDS011;14766;51.380;13.762;2022-08-03T14:48:21;1.20;;;1.10;;
27265;SDS011;14766;51.380;13.762;2022-08-03T14:51:10;1.63;;;1.10;;
27265;SDS011;14766;51.380;13.762;2022-08-03T14:53:37;2.42;;;1.10;;
27265;SDS011;14766;51.380;13.762;2022-08-03T14:56:04;1.10;;;1.00;;
27265;SDS011;14766;51.380;13.762;2022-08-03T14:58:36;2.17;;;1.08;;
27265;SDS011;14766;51.380;13.762;2022-08-03T15:01:03;6.38;;;1.10;;
27265;SDS011;14766;51.380;13.762;2022-08-03T15:03:52;2.58;;;1.00;;
27265;SDS011;14766;51.380;13.762;2022-08-03T15:06:19;1.27;;;1.17;;
27265;SDS011;14766;51.380;13.762;2022-08-03T15:08:46;0.98;;;0.98;;
27265;SDS011;14766;51.380;13.762;2022-08-03T15:11:35;1.30;;;1.20;;
27265;SDS011;14766;51.380;13.762;2022-08-03T15:14:02;2.63;;;1.38;;
27265;SDS011;14766;51.380;13.762;2022-08-03T15:16:34;1.02;;;0.95;;
27265;SDS011;14766;51.380;13.762;2022-08-03T15:19:03;2.35;;;1.00;;
27265;SDS011;14766;51.380;13.762;2022-08-03T15:21:50;2.28;;;1.10;;
27265;SDS011;14766;51.380;13.762;2022-08-03T15:24:17;2.08;;;1.25;;
27265;SDS011;14766;51.380;13.762;2022-08-03T15:26:44;1.17;;;0.98;;
27265;SDS011;14766;51.380;13.762;2022-08-03T15:29:12;2.47;;;1.10;;
27265;SDS011;14766;51.380;13.762;2022-08-03T15:32:00;1.45;;;1.23;;
27265;SDS011;14766;51.380;13.762;2022-08-03T15:34:34;2.80;;;1.10;;
27265;SDS011;14766;51.380;13.762;2022-08-03T15:37:01;1.00;;;0.90;;
27265;SDS011;14766;51.380;13.762;2022-08-03T15:39:49;1.23;;;1.13;;
27265;SDS011;14766;51.380;13.762;2022-08-03T15:42:26;1.52;;;0.95;;
27265;SDS011;14766;51.380;13.762;2022-08-03T15:44:54;1.83;;;1.33;;
27265;SDS011;14766;51.380;13.762;2022-08-03T15:47:21;1.20;;;1.10;;
27265;SDS011;14766;51.380;13.762;2022-08-03T15:49:49;2.50;;;1.33;;
27265;SDS011;14766;51.380;13.762;2022-08-03T15:52:16;1.30;;;1.00;;
27265;SDS011;14766;51.380;13.762;2022-08-03T15:54:44;1.35;;;1.25;;
27265;SDS011;14766;51.380;13.762;2022-08-03T15:57:13;1.00;;;0.90;;
27265;SDS011;14766;51.380;13.762;2022-08-03T15:59:40;1.30;;;1.20;;
27265;SDS011;14766;51.380;13.762;2022-08-03T16:02:07;1.17;;;1.08;;